Friday, January 18, 2019, 2:46 AM EST
Back to Local

K1V4, St Johnsbury Fairbanks

Location: Saint Johnsbury, VT, United States Lat: 44.417
Local Time: 2:46 AM EST ( 7:46 GMT) Lon: -72.017
Time Zone: US/Eastern Elev: 695 ft

Show me the last for .
Show Coded

Time T Td Feel RH Dir Speed Gust Alt SLP Vis Weather Sky Remarks
2019-01-18 01:54 7 0 - 72 - - - 30.16 30.23 0 None
2019-01-18 00:54 7 0 - 72 - - - 30.17 30.24 0 6-hr Min Temp (1am): 6.1°F
6-hr Max Temp (1am): 7.0°F
2019-01-17 23:54 6 -2 - 68 - - - 30.21 30.29 0 24-hr Min Temp (12am): -8.0°F
24-hr Max Temp (12am): 14.0°F
2019-01-17 22:54 7 -2 - 65 - - - 30.23 30.31 0 None
2019-01-17 21:54 7 -1 - 69 - - - 30.25 30.34 0 None
2019-01-17 20:54 7 -2 - 65 - - - 30.27 30.35 0 None
2019-01-17 19:54 6 -2 - 68 - - - 30.28 30.37 0 None
2019-01-17 18:54 7 -2 - 65 - - - 30.29 30.37 0 6-hr Min Temp (7pm): 6.1°F
6-hr Max Temp (7pm): 14.0°F
2019-01-17 17:54 7 -2 - 65 - - - 30.28 30.36 0 None
2019-01-17 16:54 11 -7 - 43 - - - 30.27 30.35 0 None
2019-01-17 15:54 13 -8 - 37 - - - 30.28 30.36 0 None
2019-01-17 14:54 13 -8 - 37 - - - 30.30 30.37 0 None
2019-01-17 13:54 13 -7 - 39 - - - 30.31 30.39 0 None
2019-01-17 12:54 10 -8 - 42 - - - 30.33 30.40 0 6-hr Min Temp (1pm): -8.0°F
6-hr Max Temp (1pm): 10.0°F
2019-01-17 11:54 8 -7 - 49 - - - 30.36 30.43 0 None
2019-01-17 10:54 5 -7 - 56 - - - 30.39 30.47 0 None
2019-01-17 09:54 0 -7 - 71 - - - 30.40 30.48 0 None
2019-01-17 08:54 -5 -11 - 74 - - - 30.39 30.47 0 None
2019-01-17 07:54 -7 -11 - 82 - - - 30.36 30.44 0 None
2019-01-17 06:54 -6 -10 - 82 - - - 30.35 30.42 0 24-hr Precip Total (7am): 0.01"
6-hr Min Temp (7am): -6.0°F
6-hr Max Temp (7am): 5.0°F
2019-01-17 05:54 -4 -8 - 82 - - - 30.32 30.39 0 None
2019-01-17 04:54 -1 -7 - 74 - - - 30.30 30.36 0 None
2019-01-17 03:54 1 -8 - 64 - - - 30.29 30.34 0 None
2019-01-17 02:54 3 -8 - 59 - - - 30.27 30.32 0 None

Support USWX by starting your Amazon purchase here.